Wichita, KS

8:43 PM CST on February 12, 2016 (GMT -0600)
Wichita Eisenhower National Airport | | Change Station
CLOSE
Current Station
Airport
Location: Wichita,
Elevation: 1332 ft
Nearby Weather Stations

Elev 1332 ft 37.65 °N, 97.43 °W | Updated 50 minutes ago

Mostly Cloudy
Mostly Cloudy
36 °F
Feels Like 27 °F
N
15
Wind Variable Wind from NNE

Today
High -- | Low -- °F
--% Chance of Precip.
Yesterday
High -- | Low -- °F
Precip. -- in
Pressure 30.52 in
Visibility 10.0 miles
Clouds Mostly Cloudy 12000 ft
Windchill 27 °F
Dew Point 23 °F
Humidity 59%
Rainfall 0.00 in
Snow Depth Not available.
7:23 AM 6:05 PM
Waxing Crescent, 26% visible
METAR KICT 130153Z 03013KT 10SM BKN120 02/M05 A3048 RMK AO2 SLP334 T00221050
Pressure 30.52 in
Visibility 10.0 miles
Clouds Mostly Cloudy 12000 ft
Windchill 27 °F
Dew Point 23 °F
Humidity 59%
Rainfall 0.00 in
Snow Depth Not available.
7:23 AM 6:05 PM
Waxing Crescent, 26% visible
METAR KICT 130153Z 03013KT 10SM BKN120 02/M05 A3048 RMK AO2 SLP334 T00221050

10-Day Weather Forecast

Almanac

Astronomy

Feb. 12, 2016 Rise Set
Actual Time
Civil Twilight
Nautical Twilight
Astronomical Twilight
Moon
Length of Visible Light
Length of Day
Tomorrow will be .
, % of the Moon is Illuminated

Today's Extremes

State Highs State Lows

Community

WunderPhotos

Upload Photos

1,892,464 photos uploaded!

WunderBlog® & News

Nearby

Air Quality

  Air Quality AQ Index Pollutant
Not available.

Snow Depth

Station Depth Elevation

Earthquake Activity

City Distance Mag. Time & Date
Minimum magnitude displayed is 2.5.

Coastal Water Temperatures

Place Temperature

Stations

Nearby Weather Stations

Station Location Temp. Windchill Dew Point Humidity Wind Precip. Elev Updated Type
                   

Watches & Warnings

There are currently no watches in effect.